UAL2691 KEWR-KBOS
Flight info
| Callsign | UAL2691 |
|---|---|
| Flight time | 0h 44m |
| Altitude | 21000 |
| Route | MERIT ROBUC3 |
| Aircraft | A319/M-SDE3FGHIRWY/LB1 |
Departure
| Time | 2026-05-05 23:21 |
|---|---|
| Airport | Newark Liberty International Airport (KEWR) |
Arrival
| Time | 2026-05-06 00:05 |
|---|---|
| Airport | Boston Logan International Airport (KBOS) |
| Time | Latitude | Longitude | Altitude | Speed | Heading |
|---|---|---|---|---|---|
| 2026-05-05 22:56 | 40.68472 | -74.18618 | 23 ft | 0 kts | 226° |
| 2026-05-05 23:08 | 40.68475 | -74.18613 | 22 ft | 4 kts | 226° |
| 2026-05-05 23:08 | 40.68491 | -74.18591 | 25 ft | 2 kts | 226° |
| 2026-05-05 23:08 | 40.68511 | -74.18572 | 24 ft | 4 kts | 194° |
| 2026-05-05 23:08 | 40.68536 | -74.18570 | 23 ft | 4 kts | 171° |
| 2026-05-05 23:09 | 40.68561 | -74.18577 | 24 ft | 2 kts | 166° |
| 2026-05-05 23:09 | 40.68578 | -74.18582 | 24 ft | 0 kts | 166° |
| 2026-05-05 23:12 | 40.68561 | -74.18574 | 25 ft | 6 kts | 157° |
| 2026-05-05 23:12 | 40.68518 | -74.18501 | 22 ft | 14 kts | 107° |
| 2026-05-05 23:13 | 40.68507 | -74.18378 | 22 ft | 13 kts | 94° |
| 2026-05-05 23:13 | 40.68500 | -74.18260 | 22 ft | 12 kts | 95° |
| 2026-05-05 23:13 | 40.68473 | -74.18158 | 24 ft | 12 kts | 127° |
| 2026-05-05 23:13 | 40.68431 | -74.18071 | 23 ft | 11 kts | 115° |
| 2026-05-05 23:14 | 40.68398 | -74.17982 | 22 ft | 11 kts | 116° |
| 2026-05-05 23:14 | 40.68366 | -74.17893 | 22 ft | 10 kts | 115° |
| 2026-05-05 23:14 | 40.68336 | -74.17811 | 22 ft | 10 kts | 116° |
| 2026-05-05 23:14 | 40.68307 | -74.17732 | 22 ft | 9 kts | 115° |
| 2026-05-05 23:15 | 40.68283 | -74.17655 | 22 ft | 9 kts | 94° |
| 2026-05-05 23:15 | 40.68332 | -74.17601 | 22 ft | 10 kts | 26° |
| 2026-05-05 23:15 | 40.68394 | -74.17561 | 23 ft | 10 kts | 26° |
| 2026-05-05 23:15 | 40.68458 | -74.17521 | 23 ft | 11 kts | 26° |
| 2026-05-05 23:16 | 40.68531 | -74.17474 | 24 ft | 12 kts | 26° |
| 2026-05-05 23:16 | 40.68608 | -74.17425 | 23 ft | 12 kts | 26° |
| 2026-05-05 23:16 | 40.68682 | -74.17378 | 23 ft | 12 kts | 26° |
| 2026-05-05 23:16 | 40.68757 | -74.17330 | 23 ft | 12 kts | 26° |
| 2026-05-05 23:17 | 40.68837 | -74.17279 | 23 ft | 13 kts | 25° |
| 2026-05-05 23:17 | 40.68934 | -74.17218 | 23 ft | 16 kts | 26° |
| 2026-05-05 23:17 | 40.69036 | -74.17153 | 22 ft | 16 kts | 25° |
| 2026-05-05 23:17 | 40.69139 | -74.17088 | 22 ft | 16 kts | 26° |
| 2026-05-05 23:18 | 40.69238 | -74.17025 | 23 ft | 16 kts | 25° |
| 2026-05-05 23:18 | 40.69337 | -74.16961 | 22 ft | 16 kts | 26° |
| 2026-05-05 23:18 | 40.69439 | -74.16896 | 23 ft | 18 kts | 25° |
| 2026-05-05 23:18 | 40.69565 | -74.16816 | 22 ft | 22 kts | 26° |
| 2026-05-05 23:19 | 40.69708 | -74.16725 | 22 ft | 18 kts | 26° |
| 2026-05-05 23:19 | 40.69835 | -74.16645 | 21 ft | 22 kts | 26° |
| 2026-05-05 23:19 | 40.69938 | -74.16579 | 23 ft | 11 kts | 26° |
| 2026-05-05 23:19 | 40.70022 | -74.16526 | 21 ft | 15 kts | 26° |
| 2026-05-05 23:20 | 40.70067 | -74.16455 | 21 ft | 11 kts | 93° |
| 2026-05-05 23:20 | 40.70021 | -74.16367 | 19 ft | 14 kts | 179° |
| 2026-05-05 23:20 | 40.69945 | -74.16416 | 19 ft | 28 kts | 207° |
| 2026-05-05 23:20 | 40.69591 | -74.16640 | 23 ft | 84 kts | 206° |
| 2026-05-05 23:21 | 40.68902 | -74.17079 | 49 ft | 131 kts | 207° |
| 2026-05-05 23:21 | 40.68156 | -74.17489 | 869 ft | 105 kts | 193° |
| 2026-05-05 23:21 | 40.67457 | -74.17488 | 1441 ft | 99 kts | 185° |
| 2026-05-05 23:21 | 40.66740 | -74.17428 | 1959 ft | 110 kts | 182° |
| 2026-05-05 23:22 | 40.65903 | -74.17522 | 2376 ft | 133 kts | 202° |
| 2026-05-05 23:22 | 40.64965 | -74.17982 | 2961 ft | 155 kts | 206° |
| 2026-05-05 23:22 | 40.63895 | -74.18594 | 3633 ft | 180 kts | 208° |
| 2026-05-05 23:22 | 40.62667 | -74.19307 | 4384 ft | 206 kts | 208° |
| 2026-05-05 23:23 | 40.61276 | -74.20102 | 5171 ft | 230 kts | 208° |
| 2026-05-05 23:23 | 40.59757 | -74.20961 | 6134 ft | 243 kts | 208° |
| 2026-05-05 23:23 | 40.58355 | -74.22187 | 7030 ft | 245 kts | 231° |
| 2026-05-05 23:23 | 40.57601 | -74.24185 | 7976 ft | 249 kts | 258° |
| 2026-05-05 23:24 | 40.57677 | -74.26486 | 8945 ft | 258 kts | 279° |
| 2026-05-05 23:24 | 40.58246 | -74.28754 | 9903 ft | 269 kts | 297° |
| 2026-05-05 23:24 | 40.59562 | -74.30622 | 10466 ft | 297 kts | 319° |
| 2026-05-05 23:24 | 40.61367 | -74.32181 | 10806 ft | 322 kts | 323° |
| 2026-05-05 23:25 | 40.63939 | -74.34293 | 11682 ft | 334 kts | 323° |
| 2026-05-05 23:25 | 40.65284 | -74.35394 | 12232 ft | 337 kts | 323° |
| 2026-05-05 23:25 | 40.67291 | -74.37024 | 13086 ft | 341 kts | 323° |
| 2026-05-05 23:25 | 40.69321 | -74.38651 | 13903 ft | 343 kts | 323° |
| 2026-05-05 23:26 | 40.71486 | -74.40066 | 14604 ft | 356 kts | 337° |
| 2026-05-05 23:26 | 40.73988 | -74.40487 | 15307 ft | 373 kts | 358° |
| 2026-05-05 23:26 | 40.76522 | -74.39636 | 15952 ft | 392 kts | 21° |
| 2026-05-05 23:26 | 40.78717 | -74.37430 | 16608 ft | 407 kts | 47° |
| 2026-05-05 23:27 | 40.80358 | -74.34353 | 17288 ft | 413 kts | 56° |
| 2026-05-05 23:27 | 40.81928 | -74.31150 | 18030 ft | 416 kts | 56° |
| 2026-05-05 23:27 | 40.83488 | -74.27918 | 18665 ft | 420 kts | 57° |
| 2026-05-05 23:27 | 40.85061 | -74.24647 | 19316 ft | 423 kts | 57° |
| 2026-05-05 23:28 | 40.86646 | -74.21353 | 19959 ft | 426 kts | 56° |
| 2026-05-05 23:28 | 40.88248 | -74.18040 | 20563 ft | 429 kts | 56° |
| 2026-05-05 23:28 | 40.89860 | -74.14719 | 20801 ft | 430 kts | 56° |
| 2026-05-05 23:28 | 40.91496 | -74.11355 | 20858 ft | 441 kts | 56° |
| 2026-05-05 23:29 | 40.93165 | -74.07930 | 20856 ft | 445 kts | 56° |
| 2026-05-05 23:29 | 40.94840 | -74.04488 | 20841 ft | 446 kts | 56° |
| 2026-05-05 23:29 | 40.96517 | -74.01038 | 20840 ft | 446 kts | 56° |
| 2026-05-05 23:29 | 40.98195 | -73.97576 | 20835 ft | 445 kts | 56° |
| 2026-05-05 23:30 | 40.99865 | -73.94122 | 20835 ft | 445 kts | 56° |
| 2026-05-05 23:30 | 41.01420 | -73.90588 | 20860 ft | 446 kts | 65° |
| 2026-05-05 23:30 | 41.02596 | -73.86785 | 20866 ft | 446 kts | 68° |
| 2026-05-05 23:30 | 41.03747 | -73.82969 | 20868 ft | 446 kts | 68° |
| 2026-05-05 23:31 | 41.04893 | -73.79149 | 20880 ft | 446 kts | 68° |
| 2026-05-05 23:31 | 41.06030 | -73.75330 | 20875 ft | 449 kts | 68° |
| 2026-05-05 23:31 | 41.07192 | -73.71415 | 20871 ft | 464 kts | 68° |
| 2026-05-05 23:31 | 41.08376 | -73.67432 | 20869 ft | 477 kts | 68° |
| 2026-05-05 23:32 | 41.09607 | -73.63297 | 20858 ft | 488 kts | 68° |
| 2026-05-05 23:32 | 41.10857 | -73.59095 | 20870 ft | 491 kts | 68° |
| 2026-05-05 23:32 | 41.12110 | -73.54876 | 20867 ft | 492 kts | 68° |
| 2026-05-05 23:32 | 41.13362 | -73.50651 | 20868 ft | 492 kts | 68° |
| 2026-05-05 23:33 | 41.14612 | -73.46431 | 20867 ft | 492 kts | 68° |
| 2026-05-05 23:33 | 41.15863 | -73.42205 | 20866 ft | 492 kts | 68° |
| 2026-05-05 23:33 | 41.17110 | -73.37977 | 20866 ft | 492 kts | 68° |
| 2026-05-05 23:33 | 41.18356 | -73.33744 | 20870 ft | 492 kts | 68° |
| 2026-05-05 23:34 | 41.19603 | -73.29505 | 20862 ft | 493 kts | 68° |
| 2026-05-05 23:34 | 41.20848 | -73.25264 | 20856 ft | 493 kts | 68° |
| 2026-05-05 23:34 | 41.22089 | -73.21022 | 20857 ft | 493 kts | 69° |
| 2026-05-05 23:34 | 41.23325 | -73.16786 | 20856 ft | 493 kts | 69° |
| 2026-05-05 23:35 | 41.24564 | -73.12540 | 20855 ft | 493 kts | 68° |
| 2026-05-05 23:35 | 41.25804 | -73.08294 | 20881 ft | 493 kts | 69° |
| 2026-05-05 23:35 | 41.27040 | -73.04044 | 20882 ft | 493 kts | 69° |
| 2026-05-05 23:35 | 41.28269 | -72.99800 | 20887 ft | 493 kts | 69° |
| 2026-05-05 23:36 | 41.29499 | -72.95546 | 20885 ft | 493 kts | 69° |
| 2026-05-05 23:36 | 41.30715 | -72.91347 | 20878 ft | 493 kts | 68° |
| 2026-05-05 23:36 | 41.31963 | -72.87044 | 20877 ft | 493 kts | 68° |
| 2026-05-05 23:36 | 41.33182 | -72.82842 | 20889 ft | 493 kts | 69° |
| 2026-05-05 23:37 | 41.34416 | -72.78578 | 20885 ft | 494 kts | 69° |
| 2026-05-05 23:37 | 41.35646 | -72.74309 | 20876 ft | 494 kts | 69° |
| 2026-05-05 23:37 | 41.36872 | -72.70046 | 20893 ft | 494 kts | 69° |
| 2026-05-05 23:37 | 41.38097 | -72.65769 | 20900 ft | 494 kts | 69° |
| 2026-05-05 23:38 | 41.39318 | -72.61488 | 20898 ft | 494 kts | 69° |
| 2026-05-05 23:38 | 41.40535 | -72.57215 | 20899 ft | 494 kts | 69° |
| 2026-05-05 23:38 | 41.41751 | -72.52929 | 20901 ft | 494 kts | 69° |
| 2026-05-05 23:38 | 41.42969 | -72.48642 | 20904 ft | 494 kts | 69° |
| 2026-05-05 23:39 | 41.44188 | -72.44355 | 20900 ft | 494 kts | 69° |
| 2026-05-05 23:39 | 41.45406 | -72.40078 | 20906 ft | 494 kts | 69° |
| 2026-05-05 23:39 | 41.46623 | -72.35789 | 20901 ft | 494 kts | 69° |
| 2026-05-05 23:39 | 41.47838 | -72.31499 | 20904 ft | 494 kts | 69° |
| 2026-05-05 23:40 | 41.49048 | -72.27207 | 20888 ft | 494 kts | 69° |
| 2026-05-05 23:40 | 41.50255 | -72.22922 | 20892 ft | 494 kts | 68° |
| 2026-05-05 23:40 | 41.51467 | -72.18627 | 20885 ft | 494 kts | 68° |
| 2026-05-05 23:40 | 41.52678 | -72.14333 | 20885 ft | 494 kts | 68° |
| 2026-05-05 23:41 | 41.53885 | -72.10045 | 20886 ft | 494 kts | 69° |
| 2026-05-05 23:41 | 41.55092 | -72.05745 | 20890 ft | 494 kts | 69° |
| 2026-05-05 23:41 | 41.56298 | -72.01443 | 20886 ft | 494 kts | 69° |
| 2026-05-05 23:41 | 41.57497 | -71.97137 | 20900 ft | 494 kts | 69° |
| 2026-05-05 23:42 | 41.58691 | -71.92838 | 20907 ft | 495 kts | 69° |
| 2026-05-05 23:42 | 41.59890 | -71.88528 | 20895 ft | 495 kts | 69° |
| 2026-05-05 23:42 | 41.61076 | -71.84276 | 20899 ft | 495 kts | 69° |
| 2026-05-05 23:42 | 41.62270 | -71.79973 | 20917 ft | 495 kts | 69° |
| 2026-05-05 23:43 | 41.63462 | -71.75658 | 20845 ft | 495 kts | 69° |
| 2026-05-05 23:43 | 41.64649 | -71.71351 | 20428 ft | 492 kts | 69° |
| 2026-05-05 23:43 | 41.65825 | -71.67076 | 19748 ft | 487 kts | 69° |
| 2026-05-05 23:43 | 41.66983 | -71.62854 | 19080 ft | 482 kts | 69° |
| 2026-05-05 23:44 | 41.68131 | -71.58663 | 18407 ft | 477 kts | 70° |
| 2026-05-05 23:44 | 41.69268 | -71.54516 | 17746 ft | 472 kts | 70° |
| 2026-05-05 23:44 | 41.70392 | -71.50416 | 17083 ft | 468 kts | 70° |
| 2026-05-05 23:44 | 41.71506 | -71.46349 | 16379 ft | 463 kts | 70° |
| 2026-05-05 23:45 | 41.72733 | -71.42387 | 15634 ft | 458 kts | 62° |
| 2026-05-05 23:45 | 41.74303 | -71.38694 | 14962 ft | 455 kts | 59° |
| 2026-05-05 23:45 | 41.75869 | -71.35044 | 14531 ft | 452 kts | 59° |
| 2026-05-05 23:45 | 41.77425 | -71.31396 | 14054 ft | 450 kts | 59° |
| 2026-05-05 23:46 | 41.78967 | -71.27768 | 13409 ft | 446 kts | 59° |
| 2026-05-05 23:46 | 41.80488 | -71.24185 | 12718 ft | 435 kts | 59° |
| 2026-05-05 23:46 | 41.81940 | -71.20768 | 12185 ft | 409 kts | 59° |
| 2026-05-05 23:46 | 41.83289 | -71.17586 | 12053 ft | 375 kts | 59° |
| 2026-05-05 23:47 | 41.84521 | -71.14676 | 12076 ft | 344 kts | 59° |
| 2026-05-05 23:47 | 41.85684 | -71.11932 | 12102 ft | 337 kts | 59° |
| 2026-05-05 23:47 | 41.86848 | -71.09220 | 11899 ft | 334 kts | 59° |
| 2026-05-05 23:47 | 41.87997 | -71.06567 | 11757 ft | 332 kts | 58° |
| 2026-05-05 23:48 | 41.89161 | -71.03891 | 11606 ft | 331 kts | 58° |
| 2026-05-05 23:48 | 41.90317 | -71.01226 | 11469 ft | 331 kts | 59° |
| 2026-05-05 23:48 | 41.91472 | -70.98557 | 11321 ft | 330 kts | 59° |
| 2026-05-05 23:48 | 41.92621 | -70.95899 | 11175 ft | 329 kts | 59° |
| 2026-05-05 23:49 | 41.93771 | -70.93232 | 10959 ft | 328 kts | 59° |
| 2026-05-05 23:49 | 41.94914 | -70.90579 | 10802 ft | 328 kts | 59° |
| 2026-05-05 23:49 | 41.96052 | -70.87937 | 10638 ft | 327 kts | 59° |
| 2026-05-05 23:49 | 41.97191 | -70.85288 | 10504 ft | 328 kts | 59° |
| 2026-05-05 23:50 | 41.98327 | -70.82630 | 10360 ft | 328 kts | 59° |
| 2026-05-05 23:50 | 41.99460 | -70.79972 | 10214 ft | 327 kts | 59° |
| 2026-05-05 23:50 | 42.00588 | -70.77335 | 9976 ft | 324 kts | 58° |
| 2026-05-05 23:50 | 42.01942 | -70.74938 | 9602 ft | 320 kts | 45° |
| 2026-05-05 23:51 | 42.03438 | -70.72724 | 9196 ft | 319 kts | 45° |
| 2026-05-05 23:51 | 42.04924 | -70.70508 | 8866 ft | 319 kts | 46° |
| 2026-05-05 23:51 | 42.06405 | -70.68289 | 8624 ft | 319 kts | 46° |
| 2026-05-05 23:51 | 42.07888 | -70.66061 | 8394 ft | 319 kts | 46° |
| 2026-05-05 23:52 | 42.09369 | -70.63884 | 8170 ft | 319 kts | 41° |
| 2026-05-05 23:52 | 42.11148 | -70.62101 | 8007 ft | 313 kts | 24° |
| 2026-05-05 23:52 | 42.13109 | -70.61007 | 7783 ft | 306 kts | 9° |
| 2026-05-05 23:52 | 42.15180 | -70.60406 | 7510 ft | 304 kts | 5° |
| 2026-05-05 23:53 | 42.17250 | -70.59835 | 7256 ft | 303 kts | 5° |
| 2026-05-05 23:53 | 42.19309 | -70.59262 | 6972 ft | 301 kts | 5° |
| 2026-05-05 23:53 | 42.21358 | -70.58690 | 6694 ft | 301 kts | 5° |
| 2026-05-05 23:53 | 42.23408 | -70.58118 | 6410 ft | 301 kts | 5° |
| 2026-05-05 23:54 | 42.25455 | -70.57546 | 6107 ft | 300 kts | 5° |
| 2026-05-05 23:54 | 42.27494 | -70.56974 | 5808 ft | 299 kts | 5° |
| 2026-05-05 23:54 | 42.29525 | -70.56432 | 5502 ft | 296 kts | 0° |
| 2026-05-05 23:54 | 42.31538 | -70.56473 | 5125 ft | 284 kts | 342° |
| 2026-05-05 23:55 | 42.33364 | -70.57263 | 5019 ft | 270 kts | 325° |
| 2026-05-05 23:55 | 42.34907 | -70.58621 | 5025 ft | 261 kts | 310° |
| 2026-05-05 23:55 | 42.36208 | -70.60305 | 5041 ft | 259 kts | 307° |
| 2026-05-05 23:55 | 42.37496 | -70.61998 | 5014 ft | 258 kts | 307° |
| 2026-05-05 23:56 | 42.38783 | -70.63688 | 5012 ft | 258 kts | 307° |
| 2026-05-05 23:56 | 42.40067 | -70.65377 | 5012 ft | 258 kts | 307° |
| 2026-05-05 23:56 | 42.41352 | -70.67067 | 5002 ft | 257 kts | 307° |
| 2026-05-05 23:56 | 42.42626 | -70.68757 | 4784 ft | 255 kts | 307° |
| 2026-05-05 23:57 | 42.43890 | -70.70438 | 4432 ft | 254 kts | 307° |
| 2026-05-05 23:57 | 42.45135 | -70.72089 | 4050 ft | 254 kts | 307° |
| 2026-05-05 23:57 | 42.46399 | -70.73759 | 3664 ft | 253 kts | 307° |
| 2026-05-05 23:57 | 42.47665 | -70.75420 | 3282 ft | 253 kts | 307° |
| 2026-05-05 23:58 | 42.48937 | -70.77067 | 3017 ft | 253 kts | 307° |
| 2026-05-05 23:58 | 42.50225 | -70.78714 | 2992 ft | 256 kts | 307° |
| 2026-05-05 23:58 | 42.51523 | -70.80370 | 2995 ft | 254 kts | 307° |
| 2026-05-05 23:58 | 42.52779 | -70.81951 | 2990 ft | 237 kts | 307° |
| 2026-05-05 23:59 | 42.53949 | -70.83362 | 2989 ft | 213 kts | 307° |
| 2026-05-05 23:59 | 42.55009 | -70.84643 | 2992 ft | 194 kts | 298° |
| 2026-05-05 23:59 | 42.55588 | -70.86154 | 3003 ft | 174 kts | 276° |
| 2026-05-05 23:59 | 42.55755 | -70.87710 | 2999 ft | 162 kts | 261° |
| 2026-05-06 00:00 | 42.55576 | -70.89188 | 3002 ft | 157 kts | 246° |
| 2026-05-06 00:00 | 42.55098 | -70.90496 | 3000 ft | 155 kts | 234° |
| 2026-05-06 00:00 | 42.54355 | -70.91564 | 2999 ft | 157 kts | 221° |
| 2026-05-06 00:00 | 42.53399 | -70.92301 | 2996 ft | 162 kts | 207° |
| 2026-05-06 00:01 | 42.52334 | -70.92818 | 2958 ft | 163 kts | 207° |
| 2026-05-06 00:01 | 42.51290 | -70.93326 | 2841 ft | 160 kts | 207° |
| 2026-05-06 00:01 | 42.50234 | -70.93839 | 2655 ft | 160 kts | 205° |
| 2026-05-06 00:01 | 42.49201 | -70.94342 | 2461 ft | 159 kts | 205° |
| 2026-05-06 00:02 | 42.48167 | -70.94844 | 2256 ft | 157 kts | 205° |
| 2026-05-06 00:02 | 42.47144 | -70.95341 | 2047 ft | 157 kts | 205° |
| 2026-05-06 00:02 | 42.46121 | -70.95838 | 1879 ft | 151 kts | 204° |
| 2026-05-06 00:02 | 42.45183 | -70.96291 | 1667 ft | 134 kts | 202° |
| 2026-05-06 00:03 | 42.44343 | -70.96699 | 1492 ft | 125 kts | 202° |
| 2026-05-06 00:03 | 42.43543 | -70.97088 | 1328 ft | 121 kts | 202° |
| 2026-05-06 00:03 | 42.42763 | -70.97468 | 1170 ft | 118 kts | 202° |
| 2026-05-06 00:03 | 42.41990 | -70.97843 | 1007 ft | 117 kts | 202° |
| 2026-05-06 00:04 | 42.41209 | -70.98222 | 838 ft | 119 kts | 201° |
| 2026-05-06 00:04 | 42.40437 | -70.98596 | 725 ft | 118 kts | 200° |
| 2026-05-06 00:04 | 42.39662 | -70.98969 | 531 ft | 116 kts | 202° |
| 2026-05-06 00:04 | 42.38899 | -70.99344 | 410 ft | 118 kts | 202° |
| 2026-05-06 00:05 | 42.37354 | -71.00098 | 60 ft | 118 kts | 198° |
| 2026-05-06 00:05 | 42.36667 | -71.00429 | 28 ft | 79 kts | 200° |
| 2026-05-06 00:05 | 42.36393 | -71.00616 | 27 ft | 25 kts | 266° |
| 2026-05-06 00:06 | 42.36420 | -71.00727 | 30 ft | 13 kts | 291° |
| 2026-05-06 00:06 | 42.36459 | -71.00856 | 27 ft | 17 kts | 292° |
| 2026-05-06 00:06 | 42.36498 | -71.00984 | 26 ft | 14 kts | 292° |
| 2026-05-06 00:06 | 42.36530 | -71.01089 | 27 ft | 12 kts | 292° |
| 2026-05-06 00:07 | 42.36554 | -71.01170 | 26 ft | 7 kts | 291° |
| 2026-05-06 00:07 | 42.36576 | -71.01240 | 29 ft | 10 kts | 293° |
| 2026-05-06 00:07 | 42.36546 | -71.01317 | 26 ft | 12 kts | 205° |
| 2026-05-06 00:07 | 42.36453 | -71.01375 | 27 ft | 15 kts | 201° |
| 2026-05-06 00:08 | 42.36395 | -71.01404 | 27 ft | 7 kts | 201° |
| 2026-05-06 00:08 | 42.36346 | -71.01429 | 27 ft | 8 kts | 199° |
| 2026-05-06 00:08 | 42.36283 | -71.01458 | 27 ft | 11 kts | 199° |
| 2026-05-06 00:08 | 42.36208 | -71.01494 | 26 ft | 12 kts | 199° |
| 2026-05-06 00:09 | 42.36120 | -71.01537 | 26 ft | 15 kts | 200° |
| 2026-05-06 00:09 | 42.36044 | -71.01573 | 26 ft | 10 kts | 200° |
| 2026-05-06 00:09 | 42.36021 | -71.01609 | 29 ft | 1 kts | 286° |
| 2026-05-06 00:09 | 42.36025 | -71.01623 | 26 ft | 2 kts | 290° |
| 2026-05-06 00:10 | 42.36032 | -71.01652 | 27 ft | 5 kts | 289° |
| 2026-05-06 00:10 | 42.36041 | -71.01688 | 28 ft | 3 kts | 288° |
| 2026-05-06 00:10 | 42.36047 | -71.01711 | 27 ft | 1 kts | 289° |